Time;durP1;ratioP1;P1;durP2;ratioP2;P2;SDS_P1;SDS_P2;PMS_P1;PMS_P2;Temp;Humidity;BMP_temperature;BMP_pressure;BME280_temperature;BME280_humidity;BME280_pressure;Samples;Min_cycle;Max_cycle;Signal;HPM_P1;HPM_P2
2023/02/24 22:15:43;;;;;;;7.03;2.72;;;3.30;99.90;;;;;;5056474;28;20472;-60
2023/02/24 22:18:09;;;;;;;3.70;1.80;;;3.20;99.90;;;;;;5048920;28;20055;-59
2023/02/24 22:20:36;;;;;;;7.88;2.65;;;3.30;99.90;;;;;;5047733;28;20112;-60
2023/02/24 22:23:02;;;;;;;9.68;2.53;;;3.40;99.90;;;;;;5047470;28;20039;-60
2023/02/24 22:25:27;;;;;;;7.50;2.05;;;3.50;99.90;;;;;;5048639;28;20525;-60
2023/02/24 22:27:53;;;;;;;9.68;2.80;;;3.50;99.90;;;;;;5047141;28;20044;-61
2023/02/24 22:30:19;;;;;;;10.32;2.90;;;3.60;99.90;;;;;;5048891;28;20033;-60
2023/02/24 22:32:44;;;;;;;9.55;2.15;;;3.60;99.90;;;;;;5048083;28;20389;-61
2023/02/24 22:35:10;;;;;;;8.07;1.58;;;3.50;99.90;;;;;;5047730;28;20044;-62
2023/02/24 22:37:35;;;;;;;10.32;2.10;;;3.50;99.90;;;;;;5048668;28;20158;-61
2023/02/24 22:40:01;;;;;;;5.22;1.92;;;3.40;99.90;;;;;;5043432;28;20024;-62
2023/02/24 22:42:27;;;;;;;6.82;2.00;;;3.40;99.90;;;;;;5044512;28;20074;-59
2023/02/24 22:44:52;;;;;;;5.50;2.55;;;3.30;99.90;;;;;;5048313;28;20112;-60
2023/02/24 22:47:18;;;;;;;10.02;2.20;;;3.40;99.90;;;;;;5048635;28;20096;-60
2023/02/24 22:49:43;;;;;;;5.10;2.08;;;3.40;99.90;;;;;;5048008;28;20060;-61
2023/02/24 22:52:10;;;;;;;7.20;2.10;;;3.40;99.90;;;;;;5048475;28;20025;-60
2023/02/24 22:54:36;;;;;;;7.15;2.20;;;3.50;99.90;;;;;;5047852;28;20476;-62
2023/02/24 22:57:01;;;;;;;9.45;2.47;;;3.50;99.90;;;;;;5047497;28;20092;-62
2023/02/24 22:59:27;;;;;;;6.18;1.63;;;3.60;99.90;;;;;;5048665;28;20055;-60
2023/02/24 23:01:52;;;;;;;11.68;1.80;;;3.60;99.90;;;;;;5047752;28;20053;-60
2023/02/24 23:04:18;;;;;;;8.38;2.42;;;3.60;99.90;;;;;;5048452;28;20478;-60
2023/02/24 23:06:46;;;;;;;7.53;1.85;;;3.60;99.90;;;;;;5046532;28;20044;-60
2023/02/24 23:09:12;;;;;;;11.60;2.08;;;3.70;99.90;;;;;;5047960;28;20385;-60
2023/02/24 23:11:41;;;;;;;6.68;2.10;;;3.70;99.90;;;;;;5048046;28;20112;-60
2023/02/24 23:14:12;;;;;;;6.03;1.60;;;3.80;99.90;;;;;;5046661;28;20055;-60
2023/02/24 23:16:40;;;;;;;9.25;1.80;;;3.80;99.90;;;;;;5047026;28;20028;-62
2023/02/24 23:19:10;;;;;;;9.57;2.28;;;3.80;99.90;;;;;;5048192;28;20036;-60
2023/02/24 23:21:39;;;;;;;12.10;1.98;;;3.90;99.90;;;;;;5047980;28;20108;-61
2023/02/24 23:24:07;;;;;;;11.30;1.98;;;3.90;99.90;;;;;;5047143;28;20025;-60
2023/02/24 23:26:43;;;;;;;6.57;1.65;;;3.90;99.90;;;;;;5036087;28;20087;-61
2023/02/24 23:29:10;;;;;;;9.07;2.03;;;3.90;99.90;;;;;;5034543;28;20025;-60
2023/02/24 23:31:37;;;;;;;7.28;2.08;;;3.80;99.90;;;;;;5033435;28;20053;-61
2023/02/24 23:34:05;;;;;;;13.05;2.50;;;3.90;99.90;;;;;;5033153;28;20034;-61
2023/02/24 23:36:39;;;;;;;11.73;2.25;;;3.90;99.90;;;;;;5034274;28;20033;-60
2023/02/24 23:39:06;;;;;;;6.55;1.88;;;3.90;99.90;;;;;;5034529;28;20026;-60
2023/02/24 23:41:35;;;;;;;10.68;1.90;;;3.90;99.90;;;;;;5034373;28;20028;-60
2023/02/24 23:44:02;;;;;;;9.70;2.08;;;4.00;99.90;;;;;;5033758;28;20423;-60
2023/02/24 23:46:28;;;;;;;11.70;1.75;;;4.10;99.90;;;;;;5034582;28;20040;-60
2023/02/24 23:48:56;;;;;;;6.80;1.95;;;4.10;99.90;;;;;;5032942;28;20026;-60
2023/02/24 23:51:22;;;;;;;7.03;1.50;;;4.10;99.90;;;;;;5034001;28;20037;-60
2023/02/24 23:53:48;;;;;;;16.98;3.15;;;4.00;99.90;;;;;;5034193;28;20025;-60
